createdAt,value
2019-03-13T00:01:41.664Z,99594.20
2019-03-13T00:04:13.080Z,99602.08
2019-03-13T00:06:44.539Z,99606.44
2019-03-13T00:09:15.920Z,99641.50
2019-03-13T00:11:47.253Z,99631.78
2019-03-13T00:14:18.593Z,99650.17
2019-03-13T00:16:50.019Z,99672.50
2019-03-13T00:19:21.353Z,99673.81
2019-03-13T00:21:52.573Z,99696.59
2019-03-13T00:24:23.868Z,99689.96
2019-03-13T00:26:55.093Z,99684.12
2019-03-13T00:29:26.453Z,99697.13
2019-03-13T00:31:59.638Z,99709.28
2019-03-13T00:34:30.706Z,99713.20
2019-03-13T00:37:01.931Z,99730.69
2019-03-13T00:39:33.201Z,99741.17
2019-03-13T00:42:04.539Z,99749.08
2019-03-13T00:44:35.885Z,99757.36
2019-03-13T00:47:07.177Z,99749.81
2019-03-13T00:49:42.464Z,99764.23
2019-03-13T00:52:13.750Z,99762.42
2019-03-13T00:54:45.089Z,99769.84
2019-03-13T00:57:16.318Z,99772.86
2019-03-13T00:59:47.578Z,99784.17
2019-03-13T01:02:23.485Z,99783.29
2019-03-13T01:04:59.299Z,99787.60
2019-03-13T01:07:30.656Z,99789.30
2019-03-13T01:10:01.930Z,99794.05
2019-03-13T01:12:33.484Z,99805.34
2019-03-13T01:15:09.577Z,99800.43
2019-03-13T01:17:40.873Z,99812.59
2019-03-13T01:20:12.277Z,99810.36
2019-03-13T01:22:43.568Z,99821.45
2019-03-13T01:25:14.933Z,99820.53
2019-03-13T01:27:46.218Z,99811.23
2019-03-13T01:30:17.562Z,99823.44
2019-03-13T01:32:50.418Z,99825.99
2019-03-13T01:35:23.469Z,99836.07
2019-03-13T01:37:54.688Z,99844.78
2019-03-13T01:40:26.033Z,99857.44
2019-03-13T01:42:58.876Z,99848.19
2019-03-13T01:45:30.298Z,99858.54
2019-03-13T01:48:01.762Z,99856.72
2019-03-13T01:50:33.126Z,99846.94
2019-03-13T01:53:04.350Z,99851.73
2019-03-13T01:55:35.692Z,99843.38
2019-03-13T01:58:06.982Z,99848.13
2019-03-13T02:00:38.756Z,99844.12
2019-03-13T02:03:10.046Z,99848.41
2019-03-13T02:05:41.385Z,99855.70
2019-03-13T02:08:12.797Z,99852.09
2019-03-13T02:10:45.938Z,99859.10
2019-03-13T02:13:17.220Z,99858.22
2019-03-13T02:15:48.595Z,99866.33
2019-03-13T02:18:19.879Z,99888.57
2019-03-13T02:20:51.094Z,99873.73
2019-03-13T02:23:22.441Z,99870.72
2019-03-13T02:25:53.663Z,99871.12
2019-03-13T02:28:24.932Z,99854.52
2019-03-13T02:30:56.157Z,99866.44
2019-03-13T02:33:27.551Z,99859.58
2019-03-13T02:35:58.738Z,99874.95
2019-03-13T02:38:30.086Z,99893.02
2019-03-13T02:41:01.377Z,99875.92
2019-03-13T02:43:33.731Z,99891.54
2019-03-13T02:46:05.112Z,99899.30
2019-03-13T02:48:36.453Z,99898.33
2019-03-13T02:51:07.746Z,99904.41
2019-03-13T02:53:39.040Z,99907.00
2019-03-13T02:56:10.311Z,99907.57
2019-03-13T02:58:42.011Z,99904.17
2019-03-13T03:01:27.263Z,99914.16
2019-03-13T03:04:00.124Z,99905.29
2019-03-13T03:06:31.662Z,99910.63
2019-03-13T03:09:03.243Z,99926.43
2019-03-13T03:11:36.123Z,99921.16
2019-03-13T03:14:07.482Z,99931.73
2019-03-13T03:16:38.759Z,99924.29
2019-03-13T03:19:09.980Z,99931.23
2019-03-13T03:21:41.397Z,99930.28
2019-03-13T03:24:12.623Z,99938.58
2019-03-13T03:26:43.995Z,99939.89
2019-03-13T03:29:15.220Z,99932.45
2019-03-13T03:31:46.565Z,99935.87
2019-03-13T03:34:17.842Z,99949.32
2019-03-13T03:36:49.203Z,99960.22
2019-03-13T03:39:20.543Z,99954.91
2019-03-13T03:41:52.113Z,99951.89
2019-03-13T03:44:29.042Z,99959.36
2019-03-13T03:47:00.569Z,99942.88
2019-03-13T03:49:31.812Z,99953.23
2019-03-13T03:52:03.155Z,99950.61
2019-03-13T03:54:38.806Z,99948.31
2019-03-13T03:57:10.092Z,99952.52
2019-03-13T03:59:41.388Z,99937.05
2019-03-13T04:02:12.673Z,99944.30
2019-03-13T04:04:43.980Z,99935.58
2019-03-13T04:07:15.390Z,99930.80
2019-03-13T04:09:46.685Z,99933.34
2019-03-13T04:12:18.077Z,99938.89
2019-03-13T04:14:52.536Z,99935.65
2019-03-13T04:17:24.057Z,99929.42
2019-03-13T04:19:55.344Z,99923.55
2019-03-13T04:22:26.765Z,99916.47
2019-03-13T04:25:05.141Z,99925.61
2019-03-13T04:27:36.561Z,99926.17
2019-03-13T04:30:11.756Z,99927.48
2019-03-13T04:32:43.273Z,99927.65
2019-03-13T04:35:14.627Z,99937.61
2019-03-13T04:37:46.013Z,99938.10
2019-03-13T04:40:17.308Z,99939.13
2019-03-13T04:42:48.664Z,99950.23
2019-03-13T04:45:20.266Z,99954.27
2019-03-13T04:47:51.793Z,99948.23
2019-03-13T04:50:23.218Z,99946.84
2019-03-13T04:52:54.625Z,99958.66
2019-03-13T04:55:25.912Z,99962.09
2019-03-13T04:57:57.181Z,99961.27
2019-03-13T05:00:28.478Z,99958.23
2019-03-13T05:02:59.876Z,99967.84
2019-03-13T05:05:49.473Z,99960.06
2019-03-13T05:08:44.624Z,99960.55
2019-03-13T05:11:07.319Z,99968.94
2019-03-13T05:13:38.758Z,99967.20
2019-03-13T05:16:10.474Z,99970.37
2019-03-13T05:18:41.756Z,99977.30
2019-03-13T05:21:13.029Z,99971.81
2019-03-13T05:23:44.425Z,99960.86
2019-03-13T05:26:16.338Z,99973.62
2019-03-13T05:28:47.789Z,99965.25
2019-03-13T05:31:19.006Z,99963.09
2019-03-13T05:33:50.281Z,99963.06
2019-03-13T05:36:21.488Z,99956.44
2019-03-13T05:38:52.759Z,99959.09
2019-03-13T05:41:23.974Z,99966.11
2019-03-13T05:43:57.562Z,99962.69
2019-03-13T05:46:28.982Z,99958.36
2019-03-13T05:49:00.319Z,99967.88
2019-03-13T05:51:31.716Z,99968.70
2019-03-13T05:54:02.930Z,99971.27
2019-03-13T05:56:34.195Z,99969.52
2019-03-13T05:59:05.569Z,99974.77
2019-03-13T06:01:42.171Z,99983.50
2019-03-13T06:04:13.454Z,99982.55
2019-03-13T06:06:44.717Z,99988.63
2019-03-13T06:09:15.965Z,99979.47
2019-03-13T06:11:47.249Z,99992.36
2019-03-13T06:14:18.534Z,99988.51
2019-03-13T06:16:49.932Z,99984.23
2019-03-13T06:19:22.032Z,99997.39
2019-03-13T06:21:53.254Z,100007.52
2019-03-13T06:24:24.489Z,100008.90
2019-03-13T06:26:55.906Z,100009.78
2019-03-13T06:29:27.209Z,100023.34
2019-03-13T06:31:58.934Z,100016.44
2019-03-13T06:34:30.228Z,100028.71
2019-03-13T06:37:01.447Z,100020.47
2019-03-13T06:39:32.746Z,100029.23
2019-03-13T06:42:04.031Z,100017.50
2019-03-13T06:44:35.272Z,100024.92
2019-03-13T06:47:06.496Z,100019.67
2019-03-13T06:49:37.794Z,100027.06
2019-03-13T06:52:09.027Z,100020.04
2019-03-13T06:54:40.252Z,100007.34
2019-03-13T06:57:11.524Z,100023.46
2019-03-13T07:00:02.383Z,100011.37
2019-03-13T07:02:39.253Z,100010.48
2019-03-13T07:05:27.178Z,100006.58
2019-03-13T07:08:00.186Z,100006.34
2019-03-13T07:10:38.847Z,100006.61
2019-03-13T07:13:20.442Z,100014.71
2019-03-13T07:16:10.352Z,100008.20
2019-03-13T07:18:43.276Z,100010.45
2019-03-13T07:21:23.488Z,99994.73
2019-03-13T07:24:15.110Z,99997.84
2019-03-13T07:26:51.229Z,99994.89
2019-03-13T07:29:22.585Z,100004.13
2019-03-13T07:32:02.332Z,100011.31
2019-03-13T07:34:42.462Z,100025.32
2019-03-13T07:37:14.720Z,100053.90
2019-03-13T07:39:50.616Z,100038.23
2019-03-13T07:42:32.532Z,100034.47
2019-03-13T07:45:09.253Z,100035.15
2019-03-13T07:47:55.143Z,100021.40
2019-03-13T07:50:34.152Z,100017.18
2019-03-13T07:53:05.214Z,100015.30
2019-03-13T07:55:43.978Z,100019.27
2019-03-13T07:58:22.811Z,100030.08
2019-03-13T08:00:55.822Z,100036.56
2019-03-13T08:03:26.822Z,100020.69
2019-03-13T08:06:11.643Z,100039.72
2019-03-13T08:09:00.925Z,100032.05
2019-03-13T08:11:39.356Z,100026.17
2019-03-13T08:14:12.290Z,100027.23
2019-03-13T08:16:49.570Z,100026.90
2019-03-13T08:19:38.273Z,100012.69
2019-03-13T08:22:24.043Z,100006.77
2019-03-13T08:25:00.843Z,100012.02
2019-03-13T08:27:36.337Z,100006.09
2019-03-13T08:30:13.480Z,100005.00
2019-03-13T08:32:52.347Z,100005.63
2019-03-13T08:35:28.139Z,100008.41
2019-03-13T08:38:11.560Z,100005.17
2019-03-13T08:41:00.960Z,100002.27
2019-03-13T08:43:40.446Z,99988.78
2019-03-13T08:46:25.665Z,100001.89
2019-03-13T08:49:14.777Z,99993.63
2019-03-13T08:51:56.669Z,99983.41
2019-03-13T08:54:47.412Z,99972.25
2019-03-13T08:57:25.562Z,99967.97
2019-03-13T09:00:10.427Z,99964.61
2019-03-13T09:02:50.433Z,99961.33
2019-03-13T09:05:23.422Z,99991.56
2019-03-13T09:08:12.900Z,99961.27
2019-03-13T09:10:48.799Z,99946.84
2019-03-13T09:13:30.709Z,99944.77
2019-03-13T09:16:06.642Z,99951.23
2019-03-13T09:18:54.848Z,99950.10
2019-03-13T09:21:27.836Z,99947.69
2019-03-13T09:23:58.817Z,99928.16
2019-03-13T09:26:47.794Z,99939.91
2019-03-13T09:29:36.957Z,99924.19
2019-03-13T09:32:13.272Z,99922.45
2019-03-13T09:34:47.389Z,99924.27
2019-03-13T09:37:21.327Z,99923.22
2019-03-13T09:39:54.232Z,99943.03
2019-03-13T09:42:39.144Z,99920.52
2019-03-13T09:45:21.971Z,99926.16
2019-03-13T09:47:58.471Z,99941.88
2019-03-13T09:50:31.546Z,99932.00
2019-03-13T09:53:20.450Z,99938.85
2019-03-13T09:55:53.367Z,99933.97
2019-03-13T09:58:42.170Z,99961.22
2019-03-13T10:01:20.893Z,99937.45
2019-03-13T10:03:56.467Z,99937.42
2019-03-13T10:06:41.453Z,99924.66
2019-03-13T10:09:23.310Z,99930.20
2019-03-13T10:11:56.275Z,99937.02
2019-03-13T10:14:47.234Z,99958.86
2019-03-13T10:17:29.158Z,99946.41
2019-03-13T10:20:01.124Z,99926.16
2019-03-13T10:22:50.216Z,99943.27
2019-03-13T10:25:23.214Z,99942.44
2019-03-13T10:27:59.199Z,99947.58
2019-03-13T10:30:39.346Z,99930.15
2019-03-13T10:33:14.963Z,99938.37
2019-03-13T10:35:47.821Z,99931.47
2019-03-13T10:38:37.121Z,99937.23
2019-03-13T10:41:09.985Z,99929.89
2019-03-13T10:43:53.329Z,99931.74
2019-03-13T10:46:28.995Z,99939.19
2019-03-13T10:49:07.881Z,99938.38
2019-03-13T10:51:43.204Z,99918.23
2019-03-13T10:54:16.145Z,99922.26
2019-03-13T10:56:49.347Z,99917.90
2019-03-13T10:59:34.328Z,99920.88
2019-03-13T11:02:16.075Z,99915.55
2019-03-13T11:05:04.870Z,99908.03
2019-03-13T11:07:37.895Z,99916.45
2019-03-13T11:10:14.000Z,99902.61
2019-03-13T11:12:48.544Z,99897.36
2019-03-13T11:15:24.507Z,99893.59
2019-03-13T11:18:06.187Z,99878.36
2019-03-13T11:20:43.138Z,99878.63
2019-03-13T11:23:16.096Z,99869.84
2019-03-13T11:25:54.892Z,99853.48
2019-03-13T11:28:44.061Z,99863.91
2019-03-13T11:31:20.573Z,99853.53
2019-03-13T11:33:51.702Z,99855.42
2019-03-13T11:36:27.506Z,99871.69
2019-03-13T11:39:15.718Z,99878.34
2019-03-13T11:41:54.378Z,99874.53
2019-03-13T11:44:27.346Z,99870.99
2019-03-13T11:47:00.306Z,99852.56
2019-03-13T11:49:33.179Z,99866.52
2019-03-13T11:52:07.509Z,99856.41
2019-03-13T11:54:43.353Z,99863.81
2019-03-13T11:57:16.356Z,99855.87
2019-03-13T12:00:01.687Z,99862.08
2019-03-13T12:02:39.301Z,99841.02
2019-03-13T12:05:19.415Z,99858.11
2019-03-13T12:08:01.398Z,99820.70
2019-03-13T12:10:34.395Z,99833.91
2019-03-13T12:13:16.645Z,99823.14
2019-03-13T12:15:47.768Z,99817.59
2019-03-13T12:18:29.587Z,99807.16
2019-03-13T12:21:03.279Z,99821.72
2019-03-13T12:23:41.844Z,99809.73
2019-03-13T12:26:20.860Z,99806.71
2019-03-13T12:29:13.377Z,99788.73
2019-03-13T12:31:58.451Z,99786.95
2019-03-13T12:34:32.339Z,99773.30
2019-03-13T12:37:18.621Z,99782.56
2019-03-13T12:39:52.178Z,99772.92
2019-03-13T12:42:25.036Z,99771.59
2019-03-13T12:45:07.559Z,99790.03
2019-03-13T12:47:43.160Z,99774.17
2019-03-13T12:50:28.366Z,99768.86
2019-03-13T12:53:01.309Z,99757.41
2019-03-13T12:55:34.359Z,99763.62
2019-03-13T12:58:07.447Z,99763.64
2019-03-13T13:00:43.194Z,99759.23
2019-03-13T13:03:16.200Z,99764.96
2019-03-13T13:05:53.023Z,99760.06
2019-03-13T13:08:32.930Z,99806.38
2019-03-13T13:11:05.932Z,99771.18
2019-03-13T13:13:38.874Z,99783.05
2019-03-13T13:16:28.280Z,99789.69
2019-03-13T13:18:59.739Z,99785.73
2019-03-13T13:21:31.390Z,99778.23
2019-03-13T13:24:02.797Z,99773.41
2019-03-13T13:26:34.221Z,99771.20
2019-03-13T13:29:07.277Z,99765.52
2019-03-13T13:31:38.513Z,99761.98
2019-03-13T13:34:09.932Z,99748.34
2019-03-13T13:36:41.149Z,99760.19
2019-03-13T13:39:12.453Z,99753.59
2019-03-13T13:41:43.802Z,99754.94
2019-03-13T13:44:15.163Z,99736.45
2019-03-13T13:46:46.512Z,99752.72
2019-03-13T13:49:18.864Z,99747.42
2019-03-13T13:51:50.195Z,99758.38
2019-03-13T13:54:21.583Z,99761.84
2019-03-13T13:56:53.069Z,99772.87
2019-03-13T13:59:25.343Z,99770.75
2019-03-13T14:01:56.811Z,99777.41
2019-03-13T14:04:28.135Z,99753.63
2019-03-13T14:07:01.006Z,99748.78
2019-03-13T14:09:35.007Z,99748.34
2019-03-13T14:12:07.722Z,99748.73
2019-03-13T14:14:38.955Z,99745.72
2019-03-13T14:17:10.332Z,99750.10
2019-03-13T14:19:41.779Z,99743.03
2019-03-13T14:22:13.149Z,99740.86
2019-03-13T14:24:44.522Z,99758.47
2019-03-13T14:27:16.799Z,99774.29
2019-03-13T14:29:48.346Z,99750.06
2019-03-13T14:32:19.868Z,99758.87
2019-03-13T14:34:51.542Z,99738.62
2019-03-13T14:37:22.900Z,99756.67
2019-03-13T14:39:54.248Z,99755.36
2019-03-13T14:42:25.621Z,99731.58
2019-03-13T14:44:57.085Z,99733.33
2019-03-13T14:47:28.490Z,99734.66
2019-03-13T14:50:01.403Z,99732.44
2019-03-13T14:52:32.864Z,99750.52
2019-03-13T14:55:05.829Z,99746.98
2019-03-13T14:57:37.172Z,99725.41
2019-03-13T15:00:21.057Z,99741.69
2019-03-13T15:02:56.169Z,99735.92
2019-03-13T15:05:27.541Z,99739.36
2019-03-13T15:08:00.365Z,99738.05
2019-03-13T15:10:31.856Z,99735.88
2019-03-13T15:13:03.283Z,99734.96
2019-03-13T15:15:34.735Z,99722.66
2019-03-13T15:18:06.168Z,99724.42
2019-03-13T15:20:37.472Z,99721.33
2019-03-13T15:23:09.012Z,99735.23
2019-03-13T15:25:40.350Z,99731.57
2019-03-13T15:28:11.566Z,99727.04
2019-03-13T15:30:43.100Z,99718.77
2019-03-13T15:33:14.552Z,99724.08
2019-03-13T15:35:48.238Z,99709.22
2019-03-13T15:38:23.661Z,99691.80
2019-03-13T15:40:57.825Z,99692.74
2019-03-13T15:43:28.045Z,99684.82
2019-03-13T15:46:01.076Z,99680.80
2019-03-13T15:48:32.580Z,99705.77
2019-03-13T15:51:03.881Z,99679.83
2019-03-13T15:53:38.895Z,99680.25
2019-03-13T15:56:10.262Z,99670.48
2019-03-13T15:58:43.268Z,99677.89
2019-03-13T16:01:14.558Z,99670.00
2019-03-13T16:03:48.988Z,99669.92
2019-03-13T16:06:20.302Z,99673.09
2019-03-13T16:08:53.298Z,99679.81
2019-03-13T16:11:26.320Z,99672.36
2019-03-13T16:14:00.422Z,99672.33
2019-03-13T16:16:34.207Z,99657.80
2019-03-13T16:19:05.566Z,99674.05
2019-03-13T16:21:36.862Z,99679.39
2019-03-13T16:24:08.567Z,99673.25
2019-03-13T16:26:39.856Z,99674.55
2019-03-13T16:29:11.204Z,99690.29
2019-03-13T16:31:42.900Z,99686.70
2019-03-13T16:34:14.193Z,99694.59
2019-03-13T16:36:45.408Z,99693.70
2019-03-13T16:39:17.413Z,99696.34
2019-03-13T16:41:49.112Z,99695.82
2019-03-13T16:44:21.553Z,99684.77
2019-03-13T16:46:52.913Z,99693.92
2019-03-13T16:49:24.246Z,99698.69
2019-03-13T16:51:55.616Z,99699.49
2019-03-13T16:54:26.982Z,99698.13
2019-03-13T16:56:58.895Z,99710.32
2019-03-13T16:59:30.299Z,99716.82
2019-03-13T17:02:01.501Z,99710.94
2019-03-13T17:04:34.226Z,99714.25
2019-03-13T17:07:06.853Z,99722.45
2019-03-13T17:09:43.322Z,99714.74
2019-03-13T17:12:14.674Z,99734.33
2019-03-13T17:14:46.037Z,99726.27
2019-03-13T17:17:17.320Z,99740.63
2019-03-13T17:19:49.123Z,99744.92
2019-03-13T17:22:22.560Z,99736.56
2019-03-13T17:24:54.003Z,99744.90
2019-03-13T17:27:26.946Z,99739.12
2019-03-13T17:30:02.882Z,99748.25
2019-03-13T17:32:35.745Z,99750.50
2019-03-13T17:35:07.450Z,99744.81
2019-03-13T17:37:38.814Z,99748.34
2019-03-13T17:40:23.749Z,99754.05
2019-03-13T17:42:55.288Z,99756.63
2019-03-13T17:45:33.781Z,99749.56
2019-03-13T17:48:07.842Z,99758.25
2019-03-13T17:50:39.122Z,99760.41
2019-03-13T17:53:12.374Z,99760.79
2019-03-13T17:55:43.801Z,99762.88
2019-03-13T17:58:22.503Z,99758.84
2019-03-13T18:00:56.921Z,99767.51
2019-03-13T18:03:28.629Z,99771.80
2019-03-13T18:06:00.078Z,99777.00
2019-03-13T18:08:31.369Z,99800.58
2019-03-13T18:11:02.722Z,99788.81
2019-03-13T18:13:33.957Z,99793.13
2019-03-13T18:16:08.527Z,99800.50
2019-03-13T18:18:39.817Z,99792.59
2019-03-13T18:21:17.646Z,99793.48
2019-03-13T18:23:49.039Z,99792.67
2019-03-13T18:26:20.418Z,99787.50
2019-03-13T18:28:51.722Z,99796.21
2019-03-13T18:31:24.129Z,99801.38
2019-03-13T18:33:55.395Z,99807.03
2019-03-13T18:36:26.662Z,99812.39
2019-03-13T18:38:58.020Z,99816.75
2019-03-13T18:41:44.585Z,99829.50
2019-03-13T18:44:15.923Z,99820.45
2019-03-13T18:46:47.544Z,99841.39
2019-03-13T18:49:18.941Z,99840.22
2019-03-13T18:51:56.183Z,99838.33
2019-03-13T18:54:29.077Z,99850.03
2019-03-13T18:57:00.519Z,99843.81
2019-03-13T18:59:31.885Z,99846.80
2019-03-13T19:02:03.174Z,99837.02
2019-03-13T19:04:34.570Z,99850.16
2019-03-13T19:07:08.087Z,99869.77
2019-03-13T19:09:40.458Z,99863.78
2019-03-13T19:12:12.122Z,99876.92
2019-03-13T19:14:43.635Z,99896.02
2019-03-13T19:17:16.703Z,99906.17
2019-03-13T19:19:48.503Z,99896.56
2019-03-13T19:22:20.405Z,99894.36
2019-03-13T19:24:52.066Z,99889.06
2019-03-13T19:27:25.863Z,99884.66
2019-03-13T19:29:57.813Z,99894.73
2019-03-13T19:32:30.001Z,99873.59
2019-03-13T19:35:09.505Z,99873.98
2019-03-13T19:37:42.450Z,99869.08
2019-03-13T19:40:20.180Z,99859.47
2019-03-13T19:42:52.488Z,99846.84
2019-03-13T19:45:36.369Z,99860.90
2019-03-13T19:48:09.852Z,99854.34
2019-03-13T19:50:41.864Z,99874.05
2019-03-13T19:53:14.071Z,99861.56
2019-03-13T19:55:45.945Z,99861.50
2019-03-13T19:58:17.830Z,99864.10
2019-03-13T20:00:49.821Z,99868.03
2019-03-13T20:03:21.888Z,99864.55
2019-03-13T20:05:53.860Z,99871.91
2019-03-13T20:08:26.319Z,99863.03
2019-03-13T20:10:58.310Z,99872.10
2019-03-13T20:13:32.462Z,99853.22
2019-03-13T20:16:05.794Z,99857.95
2019-03-13T20:18:49.679Z,99874.55
2019-03-13T20:21:20.924Z,99874.98
2019-03-13T20:23:53.125Z,99878.40
2019-03-13T20:26:24.834Z,99883.16
2019-03-13T20:28:57.815Z,99876.08
2019-03-13T20:31:29.570Z,99884.77
2019-03-13T20:34:01.489Z,99880.34
2019-03-13T20:36:34.386Z,99891.63
2019-03-13T20:39:07.161Z,99881.50
2019-03-13T20:41:40.399Z,99883.20
2019-03-13T20:44:12.162Z,99892.02
2019-03-13T20:46:43.837Z,99900.44
2019-03-13T20:49:15.676Z,99903.45
2019-03-13T20:51:47.044Z,99907.39
2019-03-13T20:54:18.637Z,99916.67
2019-03-13T20:56:49.999Z,99928.99
2019-03-13T20:59:22.205Z,99930.77
2019-03-13T21:01:53.600Z,99941.77
2019-03-13T21:04:25.138Z,99932.63
2019-03-13T21:06:56.424Z,99933.12
2019-03-13T21:09:27.773Z,99930.58
2019-03-13T21:11:59.064Z,99939.89
2019-03-13T21:14:30.707Z,99937.73
2019-03-13T21:17:02.004Z,99930.38
2019-03-13T21:19:33.680Z,99925.52
2019-03-13T21:22:08.165Z,99928.94
2019-03-13T21:24:39.654Z,99921.92
2019-03-13T21:27:11.008Z,99923.63
2019-03-13T21:29:42.411Z,99924.48
2019-03-13T21:32:13.634Z,99931.02
2019-03-13T21:34:46.259Z,99938.55
2019-03-13T21:37:24.320Z,99953.05
2019-03-13T21:40:00.383Z,99953.99
2019-03-13T21:42:31.720Z,99953.99
2019-03-13T21:45:05.982Z,99950.91
2019-03-13T21:47:39.762Z,99954.81
2019-03-13T21:50:15.136Z,99950.45
2019-03-13T21:52:46.649Z,99960.00
2019-03-13T21:55:19.242Z,99968.72
2019-03-13T21:57:52.459Z,99977.81
2019-03-13T22:00:30.510Z,99973.02
2019-03-13T22:03:03.680Z,99974.27
2019-03-13T22:05:38.265Z,99979.41
2019-03-13T22:08:10.843Z,99984.23
2019-03-13T22:10:42.156Z,99978.95
2019-03-13T22:13:13.563Z,99983.77
2019-03-13T22:15:44.914Z,99979.67
2019-03-13T22:18:16.146Z,99978.69
2019-03-13T22:20:47.574Z,99979.05
2019-03-13T22:23:19.128Z,99983.80
2019-03-13T22:25:50.368Z,99991.20
2019-03-13T22:28:21.896Z,99996.45
2019-03-13T22:30:53.140Z,100002.41
2019-03-13T22:33:24.663Z,100009.78
2019-03-13T22:35:56.010Z,100015.84
2019-03-13T22:38:27.342Z,100023.20
2019-03-13T22:40:58.818Z,100025.33
2019-03-13T22:43:30.222Z,100035.36
2019-03-13T22:46:01.556Z,100045.88
2019-03-13T22:48:32.884Z,100041.17
2019-03-13T22:51:05.102Z,100039.97
2019-03-13T22:53:37.447Z,100041.28
2019-03-13T22:56:08.859Z,100040.81
2019-03-13T22:58:40.453Z,100038.05
2019-03-13T23:01:13.816Z,100037.13
2019-03-13T23:03:46.897Z,100045.88
2019-03-13T23:06:18.257Z,100051.16
2019-03-13T23:08:49.650Z,100048.47
2019-03-13T23:11:21.507Z,100054.09
2019-03-13T23:13:52.836Z,100053.25
2019-03-13T23:16:24.232Z,100061.64
2019-03-13T23:18:55.779Z,100049.00
2019-03-13T23:21:27.124Z,100053.85
2019-03-13T23:23:58.573Z,100050.25
2019-03-13T23:26:29.902Z,100045.89
2019-03-13T23:29:01.323Z,100051.02
2019-03-13T23:31:32.775Z,100054.56
2019-03-13T23:34:04.196Z,100061.16
2019-03-13T23:36:35.550Z,100058.22
2019-03-13T23:39:07.850Z,100062.08
2019-03-13T23:41:39.911Z,100064.88
2019-03-13T23:44:11.157Z,100063.07
2019-03-13T23:46:42.432Z,100069.56
2019-03-13T23:49:14.050Z,100076.11
2019-03-13T23:51:46.424Z,100072.64
2019-03-13T23:54:17.718Z,100066.22
2019-03-13T23:56:49.126Z,100063.59
2019-03-13T23:59:20.370Z,100066.55
